Time;durP1;ratioP1;P1;durP2;ratioP2;P2;SDS_P1;SDS_P2;PMS_P1;PMS_P2;Temp;Humidity;BMP_temperature;BMP_pressure;BME280_temperature;BME280_humidity;BME280_pressure;Samples;Min_cycle;Max_cycle;Signal;HPM_P1;HPM_P2
2021/03/05 00:01:34;;;;;;;15.13;10.88;;;;;;;;;;6283052;22;20405;-94
2021/03/05 00:04:00;;;;;;;17.83;11.43;;;;;;;;;;6288923;22;20580;-94
2021/03/05 00:06:26;;;;;;;15.87;10.60;;;;;;;;;;6289581;22;20416;-93
2021/03/05 00:08:52;;;;;;;17.30;10.32;;;;;;;;;;6288613;22;20465;-93
2021/03/05 00:11:19;;;;;;;17.95;11.32;;;;;;;;;;6290163;22;20180;-93
2021/03/05 00:13:45;;;;;;;18.25;11.32;;;;;;;;;;6289252;22;20179;-94
2021/03/05 00:16:11;;;;;;;18.65;11.18;;;;;;;;;;6289341;22;20173;-93
2021/03/05 00:18:37;;;;;;;19.58;11.68;;;;;;;;;;6287898;22;20182;-94
2021/03/05 00:21:03;;;;;;;21.20;11.90;;;;;;;;;;6287600;22;20179;-93
2021/03/05 00:23:29;;;;;;;15.57;11.93;;;;;;;;;;6289935;22;20469;-93
2021/03/05 00:25:55;;;;;;;22.75;12.50;;;;;;;;;;6289053;22;20181;-95
2021/03/05 00:28:22;;;;;;;18.10;10.70;;;;;;;;;;6289561;22;20525;-93
2021/03/05 00:30:48;;;;;;;15.80;10.00;;;;;;;;;;6289587;22;20443;-93
2021/03/05 00:33:14;;;;;;;17.20;11.53;;;;;;;;;;6289337;22;20232;-93
2021/03/05 00:35:40;;;;;;;17.30;10.63;;;;;;;;;;6287193;22;20467;-93
2021/03/05 00:38:06;;;;;;;15.80;9.93;;;;;;;;;;6288164;22;20824;-93
2021/03/05 00:40:32;;;;;;;15.45;10.48;;;;;;;;;;6286882;22;20654;-93
2021/03/05 00:42:58;;;;;;;14.43;9.45;;;;;;;;;;6290334;22;20178;-94
2021/03/05 00:45:25;;;;;;;14.20;10.43;;;;;;;;;;6288181;22;20204;-93
2021/03/05 00:47:51;;;;;;;16.75;10.68;;;;;;;;;;6287222;22;20452;-93
2021/03/05 00:50:19;;;;;;;15.68;10.13;;;;;;;;;;6285038;22;20276;-92
2021/03/05 00:52:45;;;;;;;16.00;11.20;;;;;;;;;;6285997;22;20174;-94
2021/03/05 00:55:12;;;;;;;15.18;11.73;;;;;;;;;;6288967;22;20174;-94
2021/03/05 00:57:38;;;;;;;16.65;11.02;;;;;;;;;;6288014;22;20186;-94
2021/03/05 01:00:05;;;;;;;17.77;11.82;;;;;;;;;;6289009;22;20198;-94
2021/03/05 01:02:32;;;;;;;16.33;11.20;;;;;;;;;;6289147;22;20490;-93
2021/03/05 01:04:58;;;;;;;17.20;11.52;;;;;;;;;;6289217;22;20182;-93
2021/03/05 01:07:24;;;;;;;20.40;12.63;;;;;;;;;;6287860;22;20229;-93
2021/03/05 01:09:52;;;;;;;16.25;10.50;;;;;;;;;;6291160;22;20408;-93
2021/03/05 01:12:18;;;;;;;17.08;11.70;;;;;;;;;;6287475;22;20178;-94
2021/03/05 01:14:44;;;;;;;15.45;11.95;;;;;;;;;;6288151;22;20185;-93
2021/03/05 01:17:10;;;;;;;16.83;11.30;;;;;;;;;;6288503;22;20177;-93
2021/03/05 01:19:37;;;;;;;15.50;11.75;;;;;;;;;;6289812;22;20456;-92
2021/03/05 01:22:03;;;;;;;17.10;12.18;;;;;;;;;;6287206;22;20178;-94
2021/03/05 01:24:29;;;;;;;16.85;10.98;;;;;;;;;;6287502;22;20180;-93
2021/03/05 01:26:55;;;;;;;16.70;11.85;;;;;;;;;;6286622;22;20185;-94
2021/03/05 01:29:21;;;;;;;19.17;12.57;;;;;;;;;;6288215;22;20213;-92
2021/03/05 01:31:47;;;;;;;16.13;12.00;;;;;;;;;;6286597;22;20199;-92
2021/03/05 01:34:14;;;;;;;17.92;12.40;;;;;;;;;;6289026;22;20414;-92
2021/03/05 01:36:41;;;;;;;20.13;12.20;;;;;;;;;;6284390;22;20193;-94
2021/03/05 01:39:07;;;;;;;18.75;12.15;;;;;;;;;;6285404;22;20181;-94
2021/03/05 01:41:33;;;;;;;17.58;12.10;;;;;;;;;;6288254;22;20176;-93
2021/03/05 01:43:59;;;;;;;20.63;11.88;;;;;;;;;;6259912;22;20184;-93
2021/03/05 01:46:25;;;;;;;16.83;11.40;;;;;;;;;;6288079;22;20178;-93
2021/03/05 01:48:51;;;;;;;16.92;11.27;;;;;;;;;;6286584;22;20202;-93
2021/03/05 01:51:18;;;;;;;16.02;11.23;;;;;;;;;;6288265;22;20178;-94
2021/03/05 01:53:46;;;;;;;19.35;11.60;;;;;;;;;;6287754;22;20517;-94
2021/03/05 01:56:20;;;;;;;18.13;11.93;;;;;;;;;;6288487;22;20183;-94
2021/03/05 01:58:46;;;;;;;17.77;11.45;;;;;;;;;;6286396;22;20181;-93
2021/03/05 02:01:12;;;;;;;16.75;11.10;;;;;;;;;;6287475;22;20178;-93
2021/03/05 02:03:38;;;;;;;17.90;11.70;;;;;;;;;;6287322;22;20180;-94
2021/03/05 02:06:04;;;;;;;16.20;11.37;;;;;;;;;;6288641;22;20401;-94
2021/03/05 02:08:30;;;;;;;21.00;12.82;;;;;;;;;;6286719;22;20444;-94
2021/03/05 02:10:57;;;;;;;18.95;12.70;;;;;;;;;;6287859;22;20178;-93
2021/03/05 02:13:24;;;;;;;18.80;12.07;;;;;;;;;;6284114;22;20520;-94
2021/03/05 02:15:50;;;;;;;17.50;11.85;;;;;;;;;;6285068;22;20178;-93
2021/03/05 02:18:20;;;;;;;18.60;12.60;;;;;;;;;;6285490;22;20178;-93
2021/03/05 02:20:57;;;;;;;18.15;12.18;;;;;;;;;;6287466;22;20209;-93
2021/03/05 02:23:46;;;;;;;22.65;11.85;;;;;;;;;;6286437;22;20673;-94
2021/03/05 02:26:36;;;;;;;18.15;12.52;;;;;;;;;;6272330;22;20188;-93
2021/03/05 02:29:23;;;;;;;20.00;12.40;;;;;;;;;;6261240;22;20197;-93
2021/03/05 02:31:50;;;;;;;16.13;11.65;;;;;;;;;;6285629;22;20198;-94
2021/03/05 02:34:20;;;;;;;20.33;13.05;;;;;;;;;;6284183;22;20177;-94
2021/03/05 02:36:49;;;;;;;18.65;13.50;;;;;;;;;;6286769;22;20177;-93
2021/03/05 02:39:16;;;;;;;16.27;12.00;;;;;;;;;;6286828;22;20191;-94
2021/03/05 02:41:43;;;;;;;19.60;13.07;;;;;;;;;;6288386;22;20722;-93
2021/03/05 02:44:15;;;;;;;18.58;11.63;;;;;;;;;;6285871;22;20182;-94
2021/03/05 02:46:41;;;;;;;17.00;11.98;;;;;;;;;;6286458;22;20212;-94
2021/03/05 02:49:09;;;;;;;24.48;13.90;;;;;;;;;;6286836;22;20202;-94
2021/03/05 02:51:36;;;;;;;19.60;13.60;;;;;;;;;;6286244;22;20183;-93
2021/03/05 02:54:03;;;;;;;21.15;13.45;;;;;;;;;;6286268;22;20181;-94
2021/03/05 02:56:32;;;;;;;21.33;14.68;;;;;;;;;;6285148;22;20209;-93
2021/03/05 02:58:58;;;;;;;19.00;12.43;;;;;;;;;;6286857;22;20178;-93
2021/03/05 03:01:25;;;;;;;19.05;13.55;;;;;;;;;;6285072;22;20220;-94
2021/03/05 03:03:52;;;;;;;17.70;12.40;;;;;;;;;;6288281;22;20178;-94
2021/03/05 03:06:20;;;;;;;19.85;13.50;;;;;;;;;;6286013;22;20174;-93
2021/03/05 03:08:47;;;;;;;20.80;13.57;;;;;;;;;;6287375;22;20198;-93
2021/03/05 03:11:14;;;;;;;20.45;13.25;;;;;;;;;;6286084;22;20174;-93
2021/03/05 03:13:40;;;;;;;23.15;14.70;;;;;;;;;;6287822;22;20190;-93
2021/03/05 03:16:07;;;;;;;22.45;13.75;;;;;;;;;;6287246;22;20187;-93
2021/03/05 03:18:34;;;;;;;20.75;13.13;;;;;;;;;;6287655;22;20179;-94
2021/03/05 03:21:00;;;;;;;23.38;15.65;;;;;;;;;;6289582;22;20201;-94
2021/03/05 03:23:27;;;;;;;23.23;15.50;;;;;;;;;;6286360;22;20182;-94
2021/03/05 03:25:53;;;;;;;23.67;15.32;;;;;;;;;;6285551;22;20170;-95
2021/03/05 03:28:20;;;;;;;22.35;15.05;;;;;;;;;;6287236;22;20216;-95
2021/03/05 03:30:46;;;;;;;20.30;14.90;;;;;;;;;;6286691;22;20197;-94
2021/03/05 03:33:13;;;;;;;21.92;15.25;;;;;;;;;;6283389;22;20204;-94
2021/03/05 03:35:39;;;;;;;20.55;14.35;;;;;;;;;;6284929;22;20179;-94
2021/03/05 03:38:08;;;;;;;25.05;14.38;;;;;;;;;;6284459;22;20174;-94
2021/03/05 03:40:36;;;;;;;21.65;14.35;;;;;;;;;;6286528;22;20170;-93
2021/03/05 03:43:02;;;;;;;24.75;13.73;;;;;;;;;;6285471;22;20626;-94
2021/03/05 03:45:30;;;;;;;23.52;14.30;;;;;;;;;;6286740;22;20188;-95
2021/03/05 03:47:57;;;;;;;27.38;15.73;;;;;;;;;;6285605;22;20198;-94
2021/03/05 03:50:27;;;;;;;24.30;15.85;;;;;;;;;;6287421;22;20174;-94
2021/03/05 03:52:55;;;;;;;29.40;17.20;;;;;;;;;;6285435;22;20174;-93
2021/03/05 03:55:21;;;;;;;23.20;16.48;;;;;;;;;;6285184;22;20631;-94
2021/03/05 03:57:49;;;;;;;26.25;16.38;;;;;;;;;;6283146;22;21046;-95
2021/03/05 04:00:17;;;;;;;25.00;15.73;;;;;;;;;;6284378;22;20237;-94
2021/03/05 04:02:45;;;;;;;28.90;16.40;;;;;;;;;;6282826;22;20689;-93
2021/03/05 04:05:12;;;;;;;27.70;17.10;;;;;;;;;;6286924;22;20185;-94
2021/03/05 04:07:40;;;;;;;25.05;16.85;;;;;;;;;;6284702;22;20194;-94
2021/03/05 04:10:07;;;;;;;25.00;15.90;;;;;;;;;;6285940;22;20201;-93
2021/03/05 04:12:33;;;;;;;22.60;14.65;;;;;;;;;;6285628;22;20178;-95
2021/03/05 04:15:01;;;;;;;30.23;18.08;;;;;;;;;;6287507;22;20174;-94
2021/03/05 04:17:27;;;;;;;23.70;16.33;;;;;;;;;;6286782;22;20182;-94
2021/03/05 04:19:53;;;;;;;27.15;18.38;;;;;;;;;;6284331;22;20186;-94
2021/03/05 04:22:20;;;;;;;22.05;16.00;;;;;;;;;;6285456;22;20237;-96
2021/03/05 04:24:46;;;;;;;26.00;14.63;;;;;;;;;;6282802;22;20200;-95
2021/03/05 04:27:12;;;;;;;27.83;16.20;;;;;;;;;;6284803;22;20174;-94
2021/03/05 04:29:38;;;;;;;28.65;17.00;;;;;;;;;;6284633;22;20424;-95
2021/03/05 04:32:05;;;;;;;22.98;16.30;;;;;;;;;;6285585;22;20198;-92
2021/03/05 04:34:32;;;;;;;29.23;17.10;;;;;;;;;;6284738;22;20189;-94
2021/03/05 04:36:58;;;;;;;24.25;15.82;;;;;;;;;;6285931;22;20185;-94
2021/03/05 04:39:24;;;;;;;23.48;16.63;;;;;;;;;;6285524;22;20178;-94
2021/03/05 04:41:50;;;;;;;26.05;15.60;;;;;;;;;;6286852;22;20178;-94
2021/03/05 04:44:16;;;;;;;21.67;14.05;;;;;;;;;;6283832;22;20178;-94
2021/03/05 04:46:42;;;;;;;21.27;14.57;;;;;;;;;;6284743;22;20204;-94
2021/03/05 04:49:09;;;;;;;23.33;14.45;;;;;;;;;;6283000;22;20201;-94
2021/03/05 04:51:35;;;;;;;21.63;14.65;;;;;;;;;;6284226;22;20170;-94
2021/03/05 04:54:02;;;;;;;25.02;15.38;;;;;;;;;;6287617;22;20170;-95
2021/03/05 04:56:29;;;;;;;27.45;16.33;;;;;;;;;;6286517;22;20212;-94
2021/03/05 04:58:55;;;;;;;30.73;17.38;;;;;;;;;;6287008;22;20181;-95
2021/03/05 05:01:21;;;;;;;23.63;15.60;;;;;;;;;;6285579;22;20174;-94
2021/03/05 05:03:47;;;;;;;25.30;15.67;;;;;;;;;;6289978;22;20423;-93
2021/03/05 05:06:14;;;;;;;29.55;15.05;;;;;;;;;;6288318;22;20408;-94
2021/03/05 05:08:40;;;;;;;28.52;15.55;;;;;;;;;;6292584;22;20205;-95
2021/03/05 05:11:06;;;;;;;27.92;16.88;;;;;;;;;;6285567;22;20178;-95
2021/03/05 05:13:32;;;;;;;27.83;18.75;;;;;;;;;;6287820;22;20185;-95
2021/03/05 05:15:59;;;;;;;23.35;16.15;;;;;;;;;;6288557;22;20170;-95
2021/03/05 05:18:25;;;;;;;25.83;15.63;;;;;;;;;;6289181;22;20722;-95
2021/03/05 05:20:51;;;;;;;22.38;15.07;;;;;;;;;;6287533;22;20932;-95
2021/03/05 05:23:17;;;;;;;24.23;13.82;;;;;;;;;;6289704;22;20635;-95
2021/03/05 05:25:43;;;;;;;20.98;14.32;;;;;;;;;;6287720;22;20182;-95
2021/03/05 05:28:10;;;;;;;25.20;16.15;;;;;;;;;;6289165;22;20197;-96
2021/03/05 05:30:36;;;;;;;23.40;15.23;;;;;;;;;;6286120;22;20197;-96
2021/03/05 05:33:02;;;;;;;26.77;17.02;;;;;;;;;;6287003;22;20185;-95
2021/03/05 05:35:28;;;;;;;25.77;14.50;;;;;;;;;;6287780;22;20197;-95
2021/03/05 05:37:54;;;;;;;22.10;13.75;;;;;;;;;;6286358;22;20178;-95
2021/03/05 05:40:21;;;;;;;22.05;15.40;;;;;;;;;;6289555;22;20204;-96
2021/03/05 05:42:48;;;;;;;28.52;16.00;;;;;;;;;;6286252;22;20181;-94
2021/03/05 05:45:14;;;;;;;23.13;14.15;;;;;;;;;;6285909;22;20178;-95
2021/03/05 05:47:40;;;;;;;25.50;15.70;;;;;;;;;;6285732;22;20202;-93
2021/03/05 05:50:07;;;;;;;23.35;14.20;;;;;;;;;;6288369;22;20181;-94
2021/03/05 05:52:33;;;;;;;21.85;14.55;;;;;;;;;;6287381;22;20170;-96
2021/03/05 05:55:00;;;;;;;23.60;15.02;;;;;;;;;;6288507;22;20182;-95
2021/03/05 05:57:27;;;;;;;23.30;15.68;;;;;;;;;;6286495;22;20177;-94
2021/03/05 05:59:55;;;;;;;29.05;15.52;;;;;;;;;;6284865;22;20185;-94
2021/03/05 06:02:21;;;;;;;22.20;16.80;;;;;;;;;;6284119;22;20182;-93
2021/03/05 06:04:47;;;;;;;25.48;16.77;;;;;;;;;;6287419;22;20171;-94
2021/03/05 06:07:13;;;;;;;22.55;15.93;;;;;;;;;;6285651;22;20178;-93
2021/03/05 06:09:39;;;;;;;28.92;17.02;;;;;;;;;;6285532;22;20226;-93
2021/03/05 06:12:12;;;;;;;27.50;17.73;;;;;;;;;;6285796;22;20175;-92
2021/03/05 06:14:40;;;;;;;29.77;19.35;;;;;;;;;;6284908;22;20471;-93
2021/03/05 06:17:06;;;;;;;30.70;20.40;;;;;;;;;;6286284;22;20691;-93
2021/03/05 06:19:32;;;;;;;36.27;23.37;;;;;;;;;;6284703;22;20187;-92
2021/03/05 06:21:58;;;;;;;42.28;25.27;;;;;;;;;;6286007;22;20411;-93
2021/03/05 06:24:24;;;;;;;48.30;29.07;;;;;;;;;;6282187;22;20178;-93
2021/03/05 06:26:51;;;;;;;47.90;30.92;;;;;;;;;;6284387;22;20408;-93
2021/03/05 06:29:18;;;;;;;41.70;29.83;;;;;;;;;;6286011;22;20208;-92
2021/03/05 06:31:52;;;;;;;42.05;28.10;;;;;;;;;;6286390;22;20198;-92
2021/03/05 06:34:18;;;;;;;42.78;27.95;;;;;;;;;;6285925;22;20184;-92
2021/03/05 06:36:44;;;;;;;41.50;28.40;;;;;;;;;;6287613;22;20181;-92
2021/03/05 06:39:10;;;;;;;47.05;30.55;;;;;;;;;;6285610;22;20357;-92
2021/03/05 06:41:36;;;;;;;55.50;29.10;;;;;;;;;;6287713;22;20174;-92
2021/03/05 06:44:04;;;;;;;46.30;28.90;;;;;;;;;;6283533;22;20266;-92
2021/03/05 06:46:34;;;;;;;45.35;28.40;;;;;;;;;;6284632;22;20182;-92
2021/03/05 06:49:02;;;;;;;43.75;25.10;;;;;;;;;;6283322;22;20811;-92
2021/03/05 06:51:28;;;;;;;48.17;25.90;;;;;;;;;;6284563;22;20635;-91
2021/03/05 06:54:18;;;;;;;39.22;26.63;;;;;;;;;;6285146;22;20739;-93
2021/03/05 06:56:47;;;;;;;41.40;26.15;;;;;;;;;;6270379;22;20179;-93
2021/03/05 06:59:14;;;;;;;36.80;25.25;;;;;;;;;;6286377;22;20215;-93
2021/03/05 07:01:57;;;;;;;43.42;26.27;;;;;;;;;;6287199;22;20185;-92
2021/03/05 07:04:24;;;;;;;42.90;26.00;;;;;;;;;;6282078;22;20186;-92
2021/03/05 07:06:57;;;;;;;44.10;25.53;;;;;;;;;;6283310;22;20210;-91
2021/03/05 07:09:25;;;;;;;35.17;23.00;;;;;;;;;;6283403;22;20456;-93
2021/03/05 07:11:52;;;;;;;35.30;22.75;;;;;;;;;;6285185;22;20265;-93
2021/03/05 07:14:19;;;;;;;33.05;23.65;;;;;;;;;;6283936;22;20174;-92
2021/03/05 07:16:46;;;;;;;39.17;23.65;;;;;;;;;;6282003;22;20642;-92
2021/03/05 07:19:13;;;;;;;36.27;21.27;;;;;;;;;;6286177;22;20178;-93
2021/03/05 07:21:44;;;;;;;31.63;19.90;;;;;;;;;;6284314;22;20458;-92
2021/03/05 07:24:12;;;;;;;27.03;17.97;;;;;;;;;;6286426;22;20980;-92
2021/03/05 07:26:52;;;;;;;26.73;19.13;;;;;;;;;;6284695;22;20408;-91
2021/03/05 07:29:19;;;;;;;28.93;18.37;;;;;;;;;;6286991;22;20499;-95
2021/03/05 07:31:46;;;;;;;26.47;18.30;;;;;;;;;;6284614;22;20433;-95
2021/03/05 07:34:16;;;;;;;27.23;19.57;;;;;;;;;;6294107;22;20408;-96
2021/03/05 07:36:46;;;;;;;27.70;18.07;;;;;;;;;;6284708;22;20409;-96
2021/03/05 07:39:13;;;;;;;23.43;15.43;;;;;;;;;;6286914;22;20409;-96
2021/03/05 07:41:39;;;;;;;22.40;14.50;;;;;;;;;;6285225;22;20416;-95
2021/03/05 07:44:05;;;;;;;23.70;15.63;;;;;;;;;;6284499;22;20413;-93
2021/03/05 07:46:32;;;;;;;24.17;15.90;;;;;;;;;;6280899;22;20405;-93
2021/03/05 07:48:59;;;;;;;23.87;16.17;;;;;;;;;;6286972;22;20459;-93
2021/03/05 07:51:25;;;;;;;22.73;15.33;;;;;;;;;;6285062;22;20416;-91
2021/03/05 07:53:53;;;;;;;23.23;15.10;;;;;;;;;;6285641;22;20417;-92
2021/03/05 07:56:37;;;;;;;21.87;14.27;;;;;;;;;;6284882;22;20409;-92
2021/03/05 07:59:03;;;;;;;20.73;14.07;;;;;;;;;;6284376;22;20413;-92
2021/03/05 08:01:44;;;;;;;18.13;12.40;;;;;;;;;;6282181;22;20902;-91
2021/03/05 08:04:10;;;;;;;18.13;13.07;;;;;;;;;;6285037;22;20688;-92
2021/03/05 08:06:36;;;;;;;17.93;12.50;;;;;;;;;;6284291;22;20408;-93
2021/03/05 08:09:09;;;;;;;15.10;12.00;;;;;;;;;;6285609;22;20533;-92
2021/03/05 08:11:36;;;;;;;21.57;14.30;;;;;;;;;;6286456;22;20742;-96
2021/03/05 08:14:17;;;;;;;22.37;13.67;;;;;;;;;;6283316;22;20511;-95
2021/03/05 08:16:43;;;;;;;18.93;12.90;;;;;;;;;;6282585;22;20405;-91
2021/03/05 08:19:28;;;;;;;16.03;12.40;;;;;;;;;;6283913;22;20416;-92
2021/03/05 08:22:01;;;;;;;21.23;11.70;;;;;;;;;;6284023;22;20417;-91
2021/03/05 08:24:28;;;;;;;17.57;12.57;;;;;;;;;;6282587;22;20418;-91
2021/03/05 08:26:57;;;;;;;17.90;12.10;;;;;;;;;;6283437;22;20770;-90
2021/03/05 08:29:38;;;;;;;18.97;14.07;;;;;;;;;;6282029;22;20457;-93
2021/03/05 08:32:05;;;;;;;18.03;13.60;;;;;;;;;;6281723;22;20439;-89
2021/03/05 08:34:31;;;;;;;17.50;14.10;;;;;;;;;;6281544;22;20413;-94
2021/03/05 08:36:57;;;;;;;26.47;14.27;;;;;;;;;;6281832;22;20401;-92
2021/03/05 08:39:24;;;;;;;22.60;15.07;;;;;;;;;;6285204;22;20416;-91
2021/03/05 08:42:11;;;;;;;24.30;16.40;;;;;;;;;;6285585;22;20413;-91
2021/03/05 08:44:37;;;;;;;27.10;16.70;;;;;;;;;;6284915;22;20412;-91
2021/03/05 08:47:06;;;;;;;23.10;17.30;;;;;;;;;;6286600;22;20399;-90
2021/03/05 08:49:32;;;;;;;26.77;16.10;;;;;;;;;;6281367;22;20475;-90
2021/03/05 08:51:58;;;;;;;25.13;15.93;;;;;;;;;;6282324;22;20490;-90
2021/03/05 08:54:30;;;;;;;24.00;14.90;;;;;;;;;;6284874;22;20408;-90
2021/03/05 08:57:02;;;;;;;23.17;14.70;;;;;;;;;;6286033;22;20403;-91
2021/03/05 09:02:31;;;;;;;25.03;16.20;;;;;;;;;;6241875;22;20403;-93
2021/03/05 09:05:01;;;;;;;21.47;15.27;;;;;;;;;;6282364;22;20443;-92
2021/03/05 09:07:36;;;;;;;22.77;15.07;;;;;;;;;;6284056;22;20409;-93
2021/03/05 09:10:06;;;;;;;22.50;14.10;;;;;;;;;;6255170;22;20425;-93
2021/03/05 09:13:03;;;;;;;;;;;;;;;;;;;;;
2021/03/05 09:15:38;;;;;;;17.50;10.90;;;;;;;;;;6275321;22;20456;-90
2021/03/05 09:18:04;;;;;;;15.63;10.77;;;;;;;;;;6280775;22;20408;-92
2021/03/05 09:20:43;;;;;;;17.50;12.53;;;;;;;;;;6281638;22;20416;-93
2021/03/05 09:23:16;;;;;;;19.70;12.10;;;;;;;;;;6284539;22;20445;-92
2021/03/05 09:25:46;;;;;;;18.63;11.27;;;;;;;;;;6284353;22;20435;-92
2021/03/05 09:28:13;;;;;;;18.63;11.87;;;;;;;;;;6285256;22;20504;-91
2021/03/05 09:30:40;;;;;;;15.47;11.70;;;;;;;;;;6283550;22;20432;-95
2021/03/05 09:33:06;;;;;;;19.57;11.90;;;;;;;;;;6286328;22;20415;-92
2021/03/05 09:35:32;;;;;;;18.43;11.37;;;;;;;;;;6284417;22;20416;-92
2021/03/05 09:37:58;;;;;;;17.73;12.60;;;;;;;;;;6284906;22;20409;-91
2021/03/05 09:40:25;;;;;;;21.23;11.93;;;;;;;;;;6281872;22;20406;-92
2021/03/05 09:42:52;;;;;;;16.63;11.73;;;;;;;;;;6283938;22;20413;-92
2021/03/05 09:45:35;;;;;;;16.10;12.57;;;;;;;;;;6285171;22;20401;-92
2021/03/05 09:48:01;;;;;;;18.80;12.67;;;;;;;;;;6283591;22;20408;-92
2021/03/05 09:50:27;;;;;;;34.53;22.90;;;;;;;;;;6280825;22;20417;-91
2021/03/05 09:52:54;;;;;;;19.00;14.53;;;;;;;;;;6283564;22;20476;-91
2021/03/05 09:55:27;;;;;;;15.77;12.90;;;;;;;;;;6285413;22;20405;-92
2021/03/05 09:57:53;;;;;;;16.07;12.13;;;;;;;;;;6283238;22;20405;-91
2021/03/05 10:00:26;;;;;;;20.30;12.10;;;;;;;;;;6283538;22;20416;-91
2021/03/05 10:03:01;;;;;;;16.40;13.10;;;;;;;;;;6283171;22;20412;-91
2021/03/05 10:05:27;;;;;;;16.70;11.30;;;;;;;;;;6283523;22;20437;-90
2021/03/05 10:07:53;;;;;;;25.33;12.50;;;;;;;;;;6282790;22;20413;-92
2021/03/05 10:10:20;;;;;;;21.33;14.07;;;;;;;;;;6285474;22;20442;-91
2021/03/05 10:12:51;;;;;;;15.43;12.20;;;;;;;;;;6284821;22;20428;-90
2021/03/05 10:15:17;;;;;;;19.47;13.40;;;;;;;;;;6287210;22;20413;-91
2021/03/05 10:17:44;;;;;;;16.87;13.47;;;;;;;;;;6285028;22;20405;-90
2021/03/05 10:20:11;;;;;;;17.90;13.03;;;;;;;;;;6284336;22;20417;-92
2021/03/05 10:22:37;;;;;;;16.40;12.40;;;;;;;;;;6283595;22;20416;-92
2021/03/05 10:25:04;;;;;;;14.50;11.87;;;;;;;;;;6286138;22;20401;-93
2021/03/05 10:27:40;;;;;;;20.20;11.10;;;;;;;;;;6283958;22;20474;-91
2021/03/05 10:30:07;;;;;;;16.53;12.50;;;;;;;;;;6283474;22;20449;-92
2021/03/05 10:32:36;;;;;;;13.63;11.37;;;;;;;;;;6282836;22;20412;-92
2021/03/05 10:35:04;;;;;;;13.03;10.73;;;;;;;;;;6286695;22;20417;-91
2021/03/05 10:37:31;;;;;;;11.10;9.97;;;;;;;;;;6284825;22;20418;-92
2021/03/05 10:39:57;;;;;;;12.67;10.70;;;;;;;;;;6282265;22;20748;-93
2021/03/05 10:42:24;;;;;;;14.07;10.07;;;;;;;;;;6283989;22;21259;-92
2021/03/05 10:44:51;;;;;;;13.47;10.67;;;;;;;;;;6285204;22;20451;-92
2021/03/05 10:47:18;;;;;;;14.60;11.70;;;;;;;;;;6287227;22;20406;-92
2021/03/05 10:49:44;;;;;;;15.47;11.73;;;;;;;;;;6284271;22;21446;-94
2021/03/05 10:52:11;;;;;;;14.77;11.70;;;;;;;;;;6286985;22;20430;-92
2021/03/05 10:54:38;;;;;;;19.83;11.40;;;;;;;;;;6287140;22;20414;-93
2021/03/05 10:57:04;;;;;;;13.93;10.40;;;;;;;;;;6282937;22;20419;-93
2021/03/05 10:59:30;;;;;;;14.37;10.53;;;;;;;;;;6283784;22;20412;-91
2021/03/05 11:01:56;;;;;;;13.03;9.87;;;;;;;;;;6278686;22;20421;-91
2021/03/05 11:04:23;;;;;;;11.10;8.90;;;;;;;;;;6275628;22;20424;-91
2021/03/05 11:06:49;;;;;;;12.90;9.97;;;;;;;;;;6283357;22;20419;-93
2021/03/05 11:09:16;;;;;;;14.80;10.57;;;;;;;;;;6284134;22;20444;-91
2021/03/05 11:11:43;;;;;;;15.47;9.70;;;;;;;;;;6286207;22;20409;-90
2021/03/05 11:14:09;;;;;;;10.33;9.17;;;;;;;;;;6285104;22;20408;-90
2021/03/05 11:16:35;;;;;;;10.50;9.10;;;;;;;;;;6284792;22;20409;-91
2021/03/05 11:19:01;;;;;;;15.73;9.83;;;;;;;;;;6283042;22;20423;-91
2021/03/05 11:21:27;;;;;;;12.20;9.30;;;;;;;;;;6284287;22;20427;-91
2021/03/05 11:23:54;;;;;;;10.20;8.50;;;;;;;;;;6286128;22;20404;-92
2021/03/05 11:26:20;;;;;;;8.83;7.73;;;;;;;;;;6287002;22;20405;-91
2021/03/05 11:28:47;;;;;;;9.47;8.17;;;;;;;;;;6286074;22;20448;-91
2021/03/05 11:31:13;;;;;;;8.37;7.20;;;;;;;;;;6283505;22;20436;-91
2021/03/05 11:33:40;;;;;;;11.77;7.80;;;;;;;;;;6286334;22;20405;-91
2021/03/05 11:36:06;;;;;;;7.80;6.83;;;;;;;;;;6284845;22;20405;-91
2021/03/05 11:38:32;;;;;;;9.30;7.70;;;;;;;;;;6287614;22;20405;-91
2021/03/05 11:40:58;;;;;;;9.00;7.27;;;;;;;;;;6285477;22;20408;-91
2021/03/05 11:43:24;;;;;;;10.33;7.00;;;;;;;;;;6285789;22;20409;-91
2021/03/05 11:45:51;;;;;;;9.77;7.10;;;;;;;;;;6281606;22;20401;-91
2021/03/05 11:48:17;;;;;;;9.30;7.77;;;;;;;;;;6284823;22;20455;-91
2021/03/05 11:50:43;;;;;;;9.60;7.20;;;;;;;;;;6285137;22;20412;-92
2021/03/05 11:53:09;;;;;;;8.20;6.60;;;;;;;;;;6286742;22;20420;-92
2021/03/05 11:55:35;;;;;;;7.83;6.70;;;;;;;;;;6285688;22;20413;-91
2021/03/05 11:58:01;;;;;;;11.30;7.27;;;;;;;;;;6287539;22;20416;-92
2021/03/05 12:00:27;;;;;;;8.63;6.70;;;;;;;;;;6287760;22;20405;-89
2021/03/05 12:02:54;;;;;;;6.53;5.93;;;;;;;;;;6285051;22;20412;-90
2021/03/05 12:05:21;;;;;;;9.97;6.57;;;;;;;;;;6286120;22;20425;-94
2021/03/05 12:07:47;;;;;;;6.83;6.13;;;;;;;;;;6284911;22;20488;-90
2021/03/05 12:10:13;;;;;;;6.80;6.10;;;;;;;;;;6286484;22;20506;-92
2021/03/05 12:12:39;;;;;;;8.70;5.90;;;;;;;;;;6284639;22;20965;-90
2021/03/05 12:15:05;;;;;;;6.80;5.50;;;;;;;;;;6284964;22;20412;-91
2021/03/05 12:17:31;;;;;;;8.57;5.57;;;;;;;;;;6283028;22;20430;-92
2021/03/05 12:19:58;;;;;;;6.23;5.63;;;;;;;;;;6282789;22;20427;-91
2021/03/05 12:22:25;;;;;;;7.90;5.70;;;;;;;;;;6281877;22;20409;-91
2021/03/05 12:24:51;;;;;;;8.77;4.97;;;;;;;;;;6287572;22;20405;-92
2021/03/05 12:27:17;;;;;;;5.90;5.40;;;;;;;;;;6284648;22;20408;-91
2021/03/05 12:29:43;;;;;;;5.90;5.40;;;;;;;;;;6286183;22;20456;-90
2021/03/05 12:32:09;;;;;;;6.93;5.60;;;;;;;;;;6284149;22;20437;-93
2021/03/05 12:34:35;;;;;;;5.50;5.07;;;;;;;;;;6285884;22;20417;-91
2021/03/05 12:37:02;;;;;;;5.83;5.33;;;;;;;;;;6285753;22;20408;-90
2021/03/05 12:39:29;;;;;;;5.80;5.30;;;;;;;;;;6284343;22;20424;-92
2021/03/05 12:41:55;;;;;;;6.37;5.77;;;;;;;;;;6283179;22;20440;-89
2021/03/05 12:44:21;;;;;;;6.27;5.67;;;;;;;;;;6282095;22;20491;-91
2021/03/05 12:46:47;;;;;;;6.60;5.90;;;;;;;;;;6283126;22;20408;-90
2021/03/05 12:49:13;;;;;;;6.80;6.10;;;;;;;;;;6284585;22;20484;-91
2021/03/05 12:51:39;;;;;;;5.67;5.10;;;;;;;;;;6285193;22;20401;-92
2021/03/05 12:54:06;;;;;;;7.47;6.50;;;;;;;;;;6283687;22;20420;-91
2021/03/05 12:56:32;;;;;;;5.97;5.47;;;;;;;;;;6285333;22;20405;-89
2021/03/05 12:58:58;;;;;;;5.90;5.30;;;;;;;;;;6283240;22;20435;-92
2021/03/05 13:01:24;;;;;;;5.90;5.10;;;;;;;;;;6285215;22;20404;-92
2021/03/05 13:03:50;;;;;;;6.90;5.70;;;;;;;;;;6282613;22;20416;-92
2021/03/05 13:06:16;;;;;;;6.37;5.77;;;;;;;;;;6283027;22;20409;-90
2021/03/05 13:08:42;;;;;;;6.20;5.70;;;;;;;;;;6282758;22;20441;-91
2021/03/05 13:11:09;;;;;;;7.93;5.73;;;;;;;;;;6286166;22;20409;-89
2021/03/05 13:13:35;;;;;;;6.70;5.53;;;;;;;;;;6283585;22;20401;-91
2021/03/05 13:16:01;;;;;;;6.33;5.70;;;;;;;;;;6282793;22;20413;-90
2021/03/05 13:18:27;;;;;;;6.27;5.40;;;;;;;;;;6283247;22;20401;-90
2021/03/05 13:20:53;;;;;;;5.60;5.10;;;;;;;;;;6282858;22;20413;-89
2021/03/05 13:23:19;;;;;;;7.27;6.10;;;;;;;;;;6284609;22;20401;-91
2021/03/05 13:25:45;;;;;;;6.37;5.77;;;;;;;;;;6284604;22;21145;-90
2021/03/05 13:28:14;;;;;;;6.73;5.90;;;;;;;;;;6284920;22;20412;-93
2021/03/05 13:30:40;;;;;;;6.87;6.13;;;;;;;;;;6282210;22;20443;-91
2021/03/05 13:33:07;;;;;;;5.77;5.23;;;;;;;;;;6283925;22;20409;-93
2021/03/05 13:35:33;;;;;;;6.40;5.80;;;;;;;;;;6286589;22;20404;-93
2021/03/05 13:37:59;;;;;;;6.80;5.93;;;;;;;;;;6287434;22;20405;-95
2021/03/05 13:40:25;;;;;;;6.33;5.60;;;;;;;;;;6285353;22;20419;-90
2021/03/05 13:42:52;;;;;;;20.20;6.10;;;;;;;;;;6286466;22;20957;-92
2021/03/05 13:45:19;;;;;;;6.10;5.50;;;;;;;;;;6286683;22;20408;-93
2021/03/05 13:47:45;;;;;;;6.17;5.57;;;;;;;;;;6288658;22;20470;-93
2021/03/05 13:50:12;;;;;;;6.40;5.43;;;;;;;;;;6286469;22;20479;-92
2021/03/05 13:52:39;;;;;;;6.00;5.50;;;;;;;;;;6288195;22;20416;-92
2021/03/05 13:55:06;;;;;;;5.90;5.30;;;;;;;;;;6286790;22;20469;-92
2021/03/05 13:57:32;;;;;;;5.93;5.33;;;;;;;;;;6287914;22;20427;-91
2021/03/05 13:59:58;;;;;;;10.10;5.77;;;;;;;;;;6287510;22;20404;-92
2021/03/05 14:02:25;;;;;;;7.10;6.17;;;;;;;;;;6285474;22;20404;-92
2021/03/05 14:04:51;;;;;;;9.47;5.87;;;;;;;;;;6282417;22;20418;-89
2021/03/05 14:07:17;;;;;;;6.30;5.30;;;;;;;;;;6282700;22;20426;-94
2021/03/05 14:09:43;;;;;;;6.10;5.50;;;;;;;;;;6287276;22;20454;-92
2021/03/05 14:12:09;;;;;;;5.67;5.17;;;;;;;;;;6286649;22;20471;-94
2021/03/05 14:14:35;;;;;;;9.63;5.90;;;;;;;;;;6288138;22;20418;-93
2021/03/05 14:17:01;;;;;;;5.97;5.37;;;;;;;;;;6286375;22;20407;-92
2021/03/05 14:19:28;;;;;;;8.63;5.93;;;;;;;;;;6287619;22;20419;-92
2021/03/05 14:21:54;;;;;;;6.30;4.90;;;;;;;;;;6285940;22;20967;-92
2021/03/05 14:24:20;;;;;;;6.00;5.17;;;;;;;;;;6286220;22;20449;-91
2021/03/05 14:26:46;;;;;;;6.33;5.40;;;;;;;;;;6283434;22;20411;-93
2021/03/05 14:29:13;;;;;;;5.30;4.70;;;;;;;;;;6286758;22;20449;-92